sensor_id;sensor_type;location;lat;lon;timestamp;pressure;altitude;pressure_sealevel;temperature;humidity
11523;BME280;40093;43.224;27.910;2023-02-27T00:00:16;100088.03;;;16.78;70.52
11523;BME280;40093;43.224;27.910;2023-02-27T00:02:44;100088.84;;;16.75;70.64
11523;BME280;40093;43.224;27.910;2023-02-27T00:05:12;100109.53;;;16.74;70.39
11523;BME280;40093;43.224;27.910;2023-02-27T00:07:40;100118.22;;;16.76;70.52
11523;BME280;40093;43.224;27.910;2023-02-27T00:10:08;100114.25;;;16.77;70.21
11523;BME280;40093;43.224;27.910;2023-02-27T00:12:37;100112.66;;;16.76;70.29
11523;BME280;40093;43.224;27.910;2023-02-27T00:15:05;100123.69;;;16.80;70.07
11523;BME280;40093;43.224;27.910;2023-02-27T00:17:33;100136.47;;;16.77;70.06
11523;BME280;40093;43.224;27.910;2023-02-27T00:19:59;100137.66;;;16.76;70.07
11523;BME280;40093;43.224;27.910;2023-02-27T00:22:26;100137.53;;;16.83;70.02
11523;BME280;40093;43.224;27.910;2023-02-27T00:24:53;100132.31;;;16.85;70.12
11523;BME280;40093;43.224;27.910;2023-02-27T00:27:20;100139.09;;;16.84;70.00
11523;BME280;40093;43.224;27.910;2023-02-27T00:29:49;100127.69;;;16.79;70.21
11523;BME280;40093;43.224;27.910;2023-02-27T00:32:16;100119.28;;;16.82;70.15
11523;BME280;40093;43.224;27.910;2023-02-27T00:34:43;100106.47;;;16.88;70.00
11523;BME280;40093;43.224;27.910;2023-02-27T00:37:09;100134.75;;;16.83;70.18
11523;BME280;40093;43.224;27.910;2023-02-27T00:39:36;100129.41;;;16.73;70.82
11523;BME280;40093;43.224;27.910;2023-02-27T00:42:03;100135.69;;;16.77;70.83
11523;BME280;40093;43.224;27.910;2023-02-27T00:44:30;100138.75;;;16.82;70.65
11523;BME280;40093;43.224;27.910;2023-02-27T00:46:58;100140.03;;;16.78;70.86
11523;BME280;40093;43.224;27.910;2023-02-27T00:49:25;100127.97;;;16.65;71.36
11523;BME280;40093;43.224;27.910;2023-02-27T00:51:52;100132.38;;;16.62;71.80
11523;BME280;40093;43.224;27.910;2023-02-27T00:54:19;100137.06;;;16.65;71.65
11523;BME280;40093;43.224;27.910;2023-02-27T00:56:46;100143.00;;;16.67;71.69
11523;BME280;40093;43.224;27.910;2023-02-27T00:59:13;100138.78;;;16.59;72.10
11523;BME280;40093;43.224;27.910;2023-02-27T01:01:39;100130.69;;;16.68;71.94
11523;BME280;40093;43.224;27.910;2023-02-27T01:04:08;100149.34;;;16.68;71.74
11523;BME280;40093;43.224;27.910;2023-02-27T01:06:35;100150.13;;;16.68;71.88
11523;BME280;40093;43.224;27.910;2023-02-27T01:09:02;100131.47;;;16.69;71.96
11523;BME280;40093;43.224;27.910;2023-02-27T01:11:29;100149.69;;;16.70;71.68
11523;BME280;40093;43.224;27.910;2023-02-27T01:13:56;100146.09;;;16.73;71.58
11523;BME280;40093;43.224;27.910;2023-02-27T01:16:23;100142.16;;;16.70;71.52
11523;BME280;40093;43.224;27.910;2023-02-27T01:18:50;100156.34;;;16.76;71.27
11523;BME280;40093;43.224;27.910;2023-02-27T01:21:18;100166.94;;;16.61;71.73
11523;BME280;40093;43.224;27.910;2023-02-27T01:23:45;100162.88;;;16.66;71.69
11523;BME280;40093;43.224;27.910;2023-02-27T01:26:12;100170.91;;;16.60;71.91
11523;BME280;40093;43.224;27.910;2023-02-27T01:28:39;100168.03;;;16.67;71.67
11523;BME280;40093;43.224;27.910;2023-02-27T01:31:06;100173.34;;;16.58;71.84
11523;BME280;40093;43.224;27.910;2023-02-27T01:33:33;100177.97;;;16.65;71.60
11523;BME280;40093;43.224;27.910;2023-02-27T01:36:01;100170.56;;;16.58;71.54
11523;BME280;40093;43.224;27.910;2023-02-27T01:38:29;100173.34;;;16.58;71.72
11523;BME280;40093;43.224;27.910;2023-02-27T01:40:56;100170.81;;;16.67;71.16
11523;BME280;40093;43.224;27.910;2023-02-27T01:43:25;100182.75;;;16.64;71.42
11523;BME280;40093;43.224;27.910;2023-02-27T01:45:52;100184.31;;;16.65;71.30
11523;BME280;40093;43.224;27.910;2023-02-27T01:48:21;100185.16;;;16.62;71.45
11523;BME280;40093;43.224;27.910;2023-02-27T01:50:53;100189.09;;;16.65;71.83
11523;BME280;40093;43.224;27.910;2023-02-27T01:53:22;100170.06;;;16.63;71.71
11523;BME280;40093;43.224;27.910;2023-02-27T01:55:55;100190.41;;;16.57;72.06
11523;BME280;40093;43.224;27.910;2023-02-27T01:58:23;100193.84;;;16.64;71.91
11523;BME280;40093;43.224;27.910;2023-02-27T02:00:51;100194.72;;;16.61;72.02
11523;BME280;40093;43.224;27.910;2023-02-27T02:03:23;100195.13;;;16.60;72.14
11523;BME280;40093;43.224;27.910;2023-02-27T02:05:53;100188.78;;;16.59;72.50
11523;BME280;40093;43.224;27.910;2023-02-27T02:08:22;100188.28;;;16.64;72.29
11523;BME280;40093;43.224;27.910;2023-02-27T02:10:53;100170.97;;;16.57;72.68
11523;BME280;40093;43.224;27.910;2023-02-27T02:13:21;100187.59;;;16.60;72.57
11523;BME280;40093;43.224;27.910;2023-02-27T02:15:59;100177.56;;;16.43;72.69
11523;BME280;40093;43.224;27.910;2023-02-27T02:18:36;100204.38;;;16.53;73.02
11523;BME280;40093;43.224;27.910;2023-02-27T02:27:25;100208.84;;;16.47;73.78
11523;BME280;40093;43.224;27.910;2023-02-27T02:33:25;100206.03;;;16.51;73.54
11523;BME280;40093;43.224;27.910;2023-02-27T02:39:35;100210.41;;;16.48;73.94
11523;BME280;40093;43.224;27.910;2023-02-27T02:42:06;100210.41;;;16.48;73.98
11523;BME280;40093;43.224;27.910;2023-02-27T02:44:42;100206.84;;;16.48;73.92
11523;BME280;40093;43.224;27.910;2023-02-27T02:47:19;100206.78;;;16.51;73.79
11523;BME280;40093;43.224;27.910;2023-02-27T02:49:54;100193.41;;;16.46;74.11
11523;BME280;40093;43.224;27.910;2023-02-27T02:52:28;100208.59;;;16.38;74.68
11523;BME280;40093;43.224;27.910;2023-02-27T02:55:02;100199.91;;;16.36;74.86
11523;BME280;40093;43.224;27.910;2023-02-27T02:57:36;100204.25;;;16.37;74.70
11523;BME280;40093;43.224;27.910;2023-02-27T03:00:10;100207.06;;;16.34;74.92
11523;BME280;40093;43.224;27.910;2023-02-27T03:02:45;100194.84;;;16.28;75.37
11523;BME280;40093;43.224;27.910;2023-02-27T03:05:18;100206.34;;;16.30;75.48
11523;BME280;40093;43.224;27.910;2023-02-27T03:07:51;100204.03;;;16.25;75.72
11523;BME280;40093;43.224;27.910;2023-02-27T03:10:25;100192.91;;;16.25;75.86
11523;BME280;40093;43.224;27.910;2023-02-27T03:12:57;100203.03;;;16.12;76.52
11523;BME280;40093;43.224;27.910;2023-02-27T03:15:28;100207.03;;;16.11;76.61
11523;BME280;40093;43.224;27.910;2023-02-27T03:18:00;100196.34;;;16.09;76.77
11523;BME280;40093;43.224;27.910;2023-02-27T03:20:34;100192.41;;;16.07;77.06
11523;BME280;40093;43.224;27.910;2023-02-27T03:23:07;100194.00;;;16.08;76.93
11523;BME280;40093;43.224;27.910;2023-02-27T03:25:38;100189.69;;;16.03;77.24
11523;BME280;40093;43.224;27.910;2023-02-27T03:28:08;100193.28;;;16.00;77.29
11523;BME280;40093;43.224;27.910;2023-02-27T03:30:38;100190.53;;;16.00;77.41
11523;BME280;40093;43.224;27.910;2023-02-27T03:33:10;100183.75;;;16.01;77.36
11523;BME280;40093;43.224;27.910;2023-02-27T03:35:44;100196.69;;;16.11;77.12
11523;BME280;40093;43.224;27.910;2023-02-27T03:38:17;100205.16;;;16.04;77.36
11523;BME280;40093;43.224;27.910;2023-02-27T03:40:52;100206.09;;;15.94;77.54
11523;BME280;40093;43.224;27.910;2023-02-27T03:43:29;100212.38;;;15.98;77.52
11523;BME280;40093;43.224;27.910;2023-02-27T03:46:02;100195.31;;;16.00;76.95
11523;BME280;40093;43.224;27.910;2023-02-27T03:48:31;100206.09;;;15.94;77.26
11523;BME280;40093;43.224;27.910;2023-02-27T03:50:58;100197.31;;;15.96;76.94
11523;BME280;40093;43.224;27.910;2023-02-27T03:53:31;100189.25;;;16.05;76.68
11523;BME280;40093;43.224;27.910;2023-02-27T03:56:02;100198.03;;;16.03;76.29
11523;BME280;40093;43.224;27.910;2023-02-27T03:58:31;100189.22;;;16.08;75.75
11523;BME280;40093;43.224;27.910;2023-02-27T04:00:58;100185.28;;;16.06;75.61
11523;BME280;40093;43.224;27.910;2023-02-27T04:03:26;100188.31;;;16.15;75.21
11523;BME280;40093;43.224;27.910;2023-02-27T04:05:53;100190.69;;;16.16;74.74
11523;BME280;40093;43.224;27.910;2023-02-27T04:08:36;100194.22;;;16.17;74.39
11523;BME280;40093;43.224;27.910;2023-02-27T04:11:36;100196.59;;;16.18;74.16
11523;BME280;40093;43.224;27.910;2023-02-27T04:14:21;100197.81;;;16.17;73.96
11523;BME280;40093;43.224;27.910;2023-02-27T04:17:05;100203.34;;;16.17;74.03
11523;BME280;40093;43.224;27.910;2023-02-27T04:19:51;100198.53;;;16.21;73.78
11523;BME280;40093;43.224;27.910;2023-02-27T04:22:29;100199.69;;;16.24;73.46
11523;BME280;40093;43.224;27.910;2023-02-27T04:25:10;100181.88;;;16.21;73.33
11523;BME280;40093;43.224;27.910;2023-02-27T04:27:49;100200.88;;;16.23;73.11
11523;BME280;40093;43.224;27.910;2023-02-27T04:30:24;100189.84;;;16.19;73.10
11523;BME280;40093;43.224;27.910;2023-02-27T04:32:56;100161.56;;;16.01;72.89
11523;BME280;40093;43.224;27.910;2023-02-27T04:35:32;100199.72;;;16.20;72.82
11523;BME280;40093;43.224;27.910;2023-02-27T04:38:03;100204.81;;;16.25;72.47
11523;BME280;40093;43.224;27.910;2023-02-27T04:40:39;100215.13;;;16.25;72.32
11523;BME280;40093;43.224;27.910;2023-02-27T04:43:11;100217.53;;;16.23;72.39
11523;BME280;40093;43.224;27.910;2023-02-27T04:45:42;100204.81;;;16.25;72.06
11523;BME280;40093;43.224;27.910;2023-02-27T04:48:14;100206.44;;;16.23;71.94
11523;BME280;40093;43.224;27.910;2023-02-27T04:50:47;100212.84;;;16.20;71.80
11523;BME280;40093;43.224;27.910;2023-02-27T04:53:20;100230.31;;;16.17;72.01
11523;BME280;40093;43.224;27.910;2023-02-27T04:55:51;100232.59;;;16.25;71.52
11523;BME280;40093;43.224;27.910;2023-02-27T04:58:24;100243.84;;;16.15;71.73
11523;BME280;40093;43.224;27.910;2023-02-27T05:00:59;100251.31;;;16.18;71.70
11523;BME280;40093;43.224;27.910;2023-02-27T05:03:30;100255.63;;;16.22;71.67
11523;BME280;40093;43.224;27.910;2023-02-27T05:06:01;100253.69;;;16.19;71.61
11523;BME280;40093;43.224;27.910;2023-02-27T05:08:33;100249.25;;;16.25;71.61
11523;BME280;40093;43.224;27.910;2023-02-27T05:11:05;100267.13;;;16.24;71.66
11523;BME280;40093;43.224;27.910;2023-02-27T05:13:38;100266.94;;;16.08;72.19
11523;BME280;40093;43.224;27.910;2023-02-27T05:16:12;100276.63;;;16.23;71.91
11523;BME280;40093;43.224;27.910;2023-02-27T05:18:43;100284.13;;;16.26;71.56
11523;BME280;40093;43.224;27.910;2023-02-27T05:21:21;100281.34;;;16.26;71.87
11523;BME280;40093;43.224;27.910;2023-02-27T05:23:56;100291.13;;;16.38;71.61
11523;BME280;40093;43.224;27.910;2023-02-27T05:26:31;100293.75;;;16.48;71.20
11523;BME280;40093;43.224;27.910;2023-02-27T05:29:08;100283.31;;;16.56;70.51
11523;BME280;40093;43.224;27.910;2023-02-27T05:31:43;100297.03;;;16.66;70.43
11523;BME280;40093;43.224;27.910;2023-02-27T05:34:18;100299.31;;;16.71;70.06
11523;BME280;40093;43.224;27.910;2023-02-27T05:36:51;100306.72;;;16.81;69.92
11523;BME280;40093;43.224;27.910;2023-02-27T05:39:20;100302.22;;;16.87;69.50
11523;BME280;40093;43.224;27.910;2023-02-27T05:41:51;100296.56;;;16.94;69.14
11523;BME280;40093;43.224;27.910;2023-02-27T05:44:25;100293.47;;;16.89;69.29
11523;BME280;40093;43.224;27.910;2023-02-27T05:46:58;100293.72;;;16.75;69.64
11523;BME280;40093;43.224;27.910;2023-02-27T05:49:27;100301.88;;;16.85;69.62
11523;BME280;40093;43.224;27.910;2023-02-27T05:51:59;100311.41;;;16.84;69.65
11523;BME280;40093;43.224;27.910;2023-02-27T05:54:33;100312.00;;;16.72;69.85
11523;BME280;40093;43.224;27.910;2023-02-27T05:57:03;100325.19;;;16.68;70.34
11523;BME280;40093;43.224;27.910;2023-02-27T05:59:37;100326.75;;;16.69;70.53
11523;BME280;40093;43.224;27.910;2023-02-27T06:02:07;100322.50;;;16.61;70.70
11523;BME280;40093;43.224;27.910;2023-02-27T06:04:35;100324.03;;;16.66;70.82
11523;BME280;40093;43.224;27.910;2023-02-27T06:07:02;100325.66;;;16.63;71.17
11523;BME280;40093;43.224;27.910;2023-02-27T06:09:30;100331.16;;;16.67;71.13
11523;BME280;40093;43.224;27.910;2023-02-27T06:11:59;100330.75;;;16.68;71.24
11523;BME280;40093;43.224;27.910;2023-02-27T06:14:26;100333.88;;;16.70;71.36
11523;BME280;40093;43.224;27.910;2023-02-27T06:16:55;100327.53;;;16.70;71.41
11523;BME280;40093;43.224;27.910;2023-02-27T06:19:21;100323.94;;;16.73;71.39
11523;BME280;40093;43.224;27.910;2023-02-27T06:21:48;100334.59;;;16.74;71.41
11523;BME280;40093;43.224;27.910;2023-02-27T06:24:15;100333.28;;;16.82;71.23
11523;BME280;40093;43.224;27.910;2023-02-27T06:26:42;100326.78;;;16.92;70.81
11523;BME280;40093;43.224;27.910;2023-02-27T06:29:09;100329.34;;;17.03;70.38
11523;BME280;40093;43.224;27.910;2023-02-27T06:31:35;100322.16;;;17.05;70.30
11523;BME280;40093;43.224;27.910;2023-02-27T06:34:04;100336.03;;;17.09;70.13
11523;BME280;40093;43.224;27.910;2023-02-27T06:36:30;100334.41;;;17.11;69.97
11523;BME280;40093;43.224;27.910;2023-02-27T06:38:57;100325.19;;;17.14;69.69
11523;BME280;40093;43.224;27.910;2023-02-27T06:41:24;100330.34;;;17.16;69.86
11523;BME280;40093;43.224;27.910;2023-02-27T06:43:51;100331.06;;;17.20;69.82
11523;BME280;40093;43.224;27.910;2023-02-27T06:46:20;100337.53;;;17.13;70.08
11523;BME280;40093;43.224;27.910;2023-02-27T06:48:46;100340.31;;;17.13;70.19
11523;BME280;40093;43.224;27.910;2023-02-27T06:51:15;100332.28;;;17.19;69.83
11523;BME280;40093;43.224;27.910;2023-02-27T06:53:42;100333.03;;;17.19;69.83
11523;BME280;40093;43.224;27.910;2023-02-27T06:56:08;100318.41;;;17.15;70.13
11523;BME280;40093;43.224;27.910;2023-02-27T06:58:35;100325.38;;;17.27;70.00
11523;BME280;40093;43.224;27.910;2023-02-27T07:01:02;100334.00;;;17.55;69.33
11523;BME280;40093;43.224;27.910;2023-02-27T07:03:29;100337.25;;;17.73;68.25
11523;BME280;40093;43.224;27.910;2023-02-27T07:05:56;100339.22;;;17.92;67.79
11523;BME280;40093;43.224;27.910;2023-02-27T07:08:25;100327.03;;;17.86;68.10
11523;BME280;40093;43.224;27.910;2023-02-27T07:10:51;100329.47;;;17.84;68.39
11523;BME280;40093;43.224;27.910;2023-02-27T07:13:18;100330.09;;;17.91;68.38
11523;BME280;40093;43.224;27.910;2023-02-27T07:15:45;100315.94;;;18.02;67.94
11523;BME280;40093;43.224;27.910;2023-02-27T07:18:12;100325.09;;;18.02;68.00
11523;BME280;40093;43.224;27.910;2023-02-27T07:20:39;100314.28;;;18.04;68.02
11523;BME280;40093;43.224;27.910;2023-02-27T07:23:06;100301.66;;;18.00;68.23
11523;BME280;40093;43.224;27.910;2023-02-27T07:25:34;100286.44;;;18.04;68.49
11523;BME280;40093;43.224;27.910;2023-02-27T07:28:01;100286.78;;;18.26;68.05
11523;BME280;40093;43.224;27.910;2023-02-27T07:30:29;100265.06;;;18.37;67.68
11523;BME280;40093;43.224;27.910;2023-02-27T07:32:56;100284.72;;;18.46;67.91
11523;BME280;40093;43.224;27.910;2023-02-27T07:35:23;100307.38;;;18.64;67.86
11523;BME280;40093;43.224;27.910;2023-02-27T07:37:50;100277.94;;;18.79;67.03
11523;BME280;40093;43.224;27.910;2023-02-27T07:40:17;100276.03;;;18.76;66.96
11523;BME280;40093;43.224;27.910;2023-02-27T07:42:47;100296.78;;;18.59;67.75
11523;BME280;40093;43.224;27.910;2023-02-27T07:45:14;100308.06;;;18.68;67.42
11523;BME280;40093;43.224;27.910;2023-02-27T07:47:42;100324.25;;;18.57;68.07
11523;BME280;40093;43.224;27.910;2023-02-27T07:50:10;100323.66;;;18.49;68.31
11523;BME280;40093;43.224;27.910;2023-02-27T07:52:38;100316.91;;;18.31;69.51
11523;BME280;40093;43.224;27.910;2023-02-27T07:55:06;100334.97;;;18.23;70.03
11523;BME280;40093;43.224;27.910;2023-02-27T07:57:33;100337.19;;;18.12;70.12
11523;BME280;40093;43.224;27.910;2023-02-27T08:00:02;100348.28;;;17.96;71.08
11523;BME280;40093;43.224;27.910;2023-02-27T08:02:30;100351.72;;;18.03;70.88
11523;BME280;40093;43.224;27.910;2023-02-27T08:04:57;100355.66;;;18.06;71.24
11523;BME280;40093;43.224;27.910;2023-02-27T08:07:24;100352.28;;;18.14;71.06
11523;BME280;40093;43.224;27.910;2023-02-27T08:09:51;100360.69;;;18.11;71.32
11523;BME280;40093;43.224;27.910;2023-02-27T08:12:18;100348.59;;;18.01;72.18
11523;BME280;40093;43.224;27.910;2023-02-27T08:14:45;100349.50;;;17.95;73.07
11523;BME280;40093;43.224;27.910;2023-02-27T08:17:14;100358.22;;;17.97;73.04
11523;BME280;40093;43.224;27.910;2023-02-27T08:19:40;100361.63;;;18.04;72.81
11523;BME280;40093;43.224;27.910;2023-02-27T08:22:07;100360.56;;;17.98;73.28
11523;BME280;40093;43.224;27.910;2023-02-27T08:24:34;100361.91;;;18.10;73.28
11523;BME280;40093;43.224;27.910;2023-02-27T08:27:01;100364.50;;;18.01;73.89
11523;BME280;40093;43.224;27.910;2023-02-27T08:29:28;100359.47;;;18.12;73.39
11523;BME280;40093;43.224;27.910;2023-02-27T08:31:57;100361.31;;;18.18;73.31
11523;BME280;40093;43.224;27.910;2023-02-27T08:34:25;100366.13;;;17.98;74.14
11523;BME280;40093;43.224;27.910;2023-02-27T08:36:52;100367.63;;;18.03;74.43
11523;BME280;40093;43.224;27.910;2023-02-27T08:39:19;100381.00;;;18.11;74.29
11523;BME280;40093;43.224;27.910;2023-02-27T08:41:48;100392.69;;;18.22;74.11
11523;BME280;40093;43.224;27.910;2023-02-27T08:44:16;100394.47;;;18.13;75.03
11523;BME280;40093;43.224;27.910;2023-02-27T08:46:43;100424.94;;;17.81;72.15
11523;BME280;40093;43.224;27.910;2023-02-27T08:49:11;100427.69;;;17.62;71.91
11523;BME280;40093;43.224;27.910;2023-02-27T08:51:39;100434.91;;;17.36;71.22
11523;BME280;40093;43.224;27.910;2023-02-27T08:54:06;100441.06;;;17.47;70.73
11523;BME280;40093;43.224;27.910;2023-02-27T08:56:33;100441.50;;;17.19;70.16
11523;BME280;40093;43.224;27.910;2023-02-27T08:59:00;100452.50;;;17.26;70.21
11523;BME280;40093;43.224;27.910;2023-02-27T09:01:27;100464.63;;;17.13;69.97
11523;BME280;40093;43.224;27.910;2023-02-27T09:03:59;100462.72;;;17.33;69.32
11523;BME280;40093;43.224;27.910;2023-02-27T09:06:26;100459.06;;;17.39;69.05
11523;BME280;40093;43.224;27.910;2023-02-27T09:08:55;100455.88;;;17.63;66.42
11523;BME280;40093;43.224;27.910;2023-02-27T09:11:23;100455.25;;;17.75;65.49
11523;BME280;40093;43.224;27.910;2023-02-27T09:13:50;100467.75;;;18.10;64.13
11523;BME280;40093;43.224;27.910;2023-02-27T09:16:18;100456.84;;;18.58;61.11
11523;BME280;40093;43.224;27.910;2023-02-27T09:18:46;100443.28;;;18.76;60.03
11523;BME280;40093;43.224;27.910;2023-02-27T09:21:13;100453.75;;;18.72;59.38
11523;BME280;40093;43.224;27.910;2023-02-27T09:23:40;100465.56;;;18.60;59.81
11523;BME280;40093;43.224;27.910;2023-02-27T09:26:08;100474.63;;;18.64;59.49
11523;BME280;40093;43.224;27.910;2023-02-27T09:28:35;100479.22;;;18.54;59.59
11523;BME280;40093;43.224;27.910;2023-02-27T09:31:05;100496.22;;;18.60;59.73
11523;BME280;40093;43.224;27.910;2023-02-27T09:33:34;100474.09;;;18.88;59.02
11523;BME280;40093;43.224;27.910;2023-02-27T09:36:01;100488.59;;;19.15;58.30
11523;BME280;40093;43.224;27.910;2023-02-27T09:38:30;100483.94;;;19.28;57.54
11523;BME280;40093;43.224;27.910;2023-02-27T09:40:57;100485.72;;;19.38;57.11
11523;BME280;40093;43.224;27.910;2023-02-27T09:43:33;100484.91;;;19.38;56.96
11523;BME280;40093;43.224;27.910;2023-02-27T09:46:01;100485.72;;;19.38;57.14
11523;BME280;40093;43.224;27.910;2023-02-27T09:48:31;100486.19;;;19.17;57.20
11523;BME280;40093;43.224;27.910;2023-02-27T09:51:00;100483.34;;;19.37;56.56
11523;BME280;40093;43.224;27.910;2023-02-27T09:53:29;100497.44;;;19.30;56.67
11523;BME280;40093;43.224;27.910;2023-02-27T09:56:04;100490.91;;;19.20;56.80
11523;BME280;40093;43.224;27.910;2023-02-27T09:58:42;100494.34;;;19.08;57.01
11523;BME280;40093;43.224;27.910;2023-02-27T10:01:15;100505.03;;;18.94;57.49
11523;BME280;40093;43.224;27.910;2023-02-27T10:06:57;100499.94;;;18.73;57.58
11523;BME280;40093;43.224;27.910;2023-02-27T10:09:34;100505.44;;;18.76;57.62
11523;BME280;40093;43.224;27.910;2023-02-27T10:12:11;100499.22;;;19.04;56.84
11523;BME280;40093;43.224;27.910;2023-02-27T10:14:46;100501.78;;;19.15;55.96
11523;BME280;40093;43.224;27.910;2023-02-27T10:17:20;100493.97;;;19.26;55.95
11523;BME280;40093;43.224;27.910;2023-02-27T10:19:51;100513.94;;;19.24;55.88
11523;BME280;40093;43.224;27.910;2023-02-27T10:22:23;100500.56;;;19.16;56.18
11523;BME280;40093;43.224;27.910;2023-02-27T10:24:56;100502.59;;;19.31;56.05
11523;BME280;40093;43.224;27.910;2023-02-27T10:27:25;100505.66;;;19.37;55.38
11523;BME280;40093;43.224;27.910;2023-02-27T10:29:57;100514.72;;;19.25;55.92
11523;BME280;40093;43.224;27.910;2023-02-27T10:32:29;100495.13;;;19.28;56.12
11523;BME280;40093;43.224;27.910;2023-02-27T10:35:06;100512.81;;;19.38;55.91
11523;BME280;40093;43.224;27.910;2023-02-27T10:37:35;100519.97;;;19.39;55.41
11523;BME280;40093;43.224;27.910;2023-02-27T10:40:04;100513.69;;;19.51;54.90
11523;BME280;40093;43.224;27.910;2023-02-27T10:42:34;100525.38;;;19.62;54.46
11523;BME280;40093;43.224;27.910;2023-02-27T10:45:03;100518.59;;;19.11;55.60
11523;BME280;40093;43.224;27.910;2023-02-27T10:47:30;100525.53;;;19.23;55.48
11523;BME280;40093;43.224;27.910;2023-02-27T10:49:57;100509.41;;;19.46;54.81
11523;BME280;40093;43.224;27.910;2023-02-27T10:52:24;100522.00;;;19.70;54.15
11523;BME280;40093;43.224;27.910;2023-02-27T10:54:51;100527.75;;;19.63;53.84
11523;BME280;40093;43.224;27.910;2023-02-27T10:57:25;100518.16;;;19.48;54.02
11523;BME280;40093;43.224;27.910;2023-02-27T10:59:57;100528.22;;;19.26;54.53
11523;BME280;40093;43.224;27.910;2023-02-27T11:02:30;100524.94;;;19.47;54.19
11523;BME280;40093;43.224;27.910;2023-02-27T11:05:01;100517.88;;;19.59;53.93
11523;BME280;40093;43.224;27.910;2023-02-27T11:07:31;100519.63;;;19.53;53.70
11523;BME280;40093;43.224;27.910;2023-02-27T11:10:02;100509.50;;;19.59;53.19
11523;BME280;40093;43.224;27.910;2023-02-27T11:12:32;100518.41;;;19.70;53.17
11523;BME280;40093;43.224;27.910;2023-02-27T11:15:02;100514.56;;;19.80;52.59
11523;BME280;40093;43.224;27.910;2023-02-27T11:17:47;100512.13;;;19.82;52.16
11523;BME280;40093;43.224;27.910;2023-02-27T11:20:33;100519.94;;;20.03;51.45
11523;BME280;40093;43.224;27.910;2023-02-27T11:23:03;100515.63;;;19.86;50.78
11523;BME280;40093;43.224;27.910;2023-02-27T11:25:31;100519.28;;;19.67;51.65
11523;BME280;40093;43.224;27.910;2023-02-27T11:28:23;100514.72;;;19.41;52.51
11523;BME280;40093;43.224;27.910;2023-02-27T11:30:59;100532.06;;;19.32;52.77
11523;BME280;40093;43.224;27.910;2023-02-27T11:33:30;100519.28;;;19.51;51.75
11523;BME280;40093;43.224;27.910;2023-02-27T11:35:57;100529.03;;;19.59;51.38
11523;BME280;40093;43.224;27.910;2023-02-27T11:38:26;100523.81;;;19.61;51.23
11523;BME280;40093;43.224;27.910;2023-02-27T11:40:57;100535.16;;;19.70;50.55
11523;BME280;40093;43.224;27.910;2023-02-27T11:43:27;100531.94;;;19.71;50.38
11523;BME280;40093;43.224;27.910;2023-02-27T11:45:56;100536.72;;;19.71;50.22
11523;BME280;40093;43.224;27.910;2023-02-27T11:48:29;100540.41;;;19.68;50.41
11523;BME280;40093;43.224;27.910;2023-02-27T11:51:26;100536.03;;;19.67;50.29
11523;BME280;40093;43.224;27.910;2023-02-27T11:54:27;100537.03;;;19.25;51.47
11523;BME280;40093;43.224;27.910;2023-02-27T11:57:01;100541.09;;;19.56;51.19
11523;BME280;40093;43.224;27.910;2023-02-27T11:59:38;100550.31;;;19.53;50.99
11523;BME280;40093;43.224;27.910;2023-02-27T12:02:14;100557.06;;;19.71;51.07
11523;BME280;40093;43.224;27.910;2023-02-27T12:04:47;100552.84;;;19.79;50.49
11523;BME280;40093;43.224;27.910;2023-02-27T12:07:22;100541.34;;;19.77;50.14
11523;BME280;40093;43.224;27.910;2023-02-27T12:09:59;100557.75;;;19.59;50.67
11523;BME280;40093;43.224;27.910;2023-02-27T12:12:33;100552.25;;;19.56;50.93
11523;BME280;40093;43.224;27.910;2023-02-27T12:15:16;100547.22;;;19.67;50.60
11523;BME280;40093;43.224;27.910;2023-02-27T12:17:47;100556.81;;;19.66;50.43
11523;BME280;40093;43.224;27.910;2023-02-27T12:20:34;100553.03;;;19.56;50.99
11523;BME280;40093;43.224;27.910;2023-02-27T12:23:04;100543.97;;;19.68;50.82
11523;BME280;40093;43.224;27.910;2023-02-27T12:25:41;100557.41;;;19.73;50.89
11523;BME280;40093;43.224;27.910;2023-02-27T12:28:20;100565.88;;;19.86;50.53
11523;BME280;40093;43.224;27.910;2023-02-27T12:30:59;100562.56;;;20.07;50.31
11523;BME280;40093;43.224;27.910;2023-02-27T12:33:35;100563.09;;;20.18;50.19
11523;BME280;40093;43.224;27.910;2023-02-27T12:36:09;100569.53;;;20.31;49.73
11523;BME280;40093;43.224;27.910;2023-02-27T12:38:37;100566.88;;;20.39;49.22
11523;BME280;40093;43.224;27.910;2023-02-27T12:44:24;100577.41;;;20.04;49.10
11523;BME280;40093;43.224;27.910;2023-02-27T12:46:59;100577.03;;;20.02;48.55
11523;BME280;40093;43.224;27.910;2023-02-27T12:49:38;100579.66;;;19.77;49.33
11523;BME280;40093;43.224;27.910;2023-02-27T12:52:18;100584.53;;;19.73;49.30
11523;BME280;40093;43.224;27.910;2023-02-27T12:54:55;100586.09;;;19.74;49.11
11523;BME280;40093;43.224;27.910;2023-02-27T12:57:36;100579.84;;;19.70;49.30
11523;BME280;40093;43.224;27.910;2023-02-27T13:00:11;100576.69;;;19.68;49.64
11523;BME280;40093;43.224;27.910;2023-02-27T13:02:48;100580.25;;;19.52;49.95
11523;BME280;40093;43.224;27.910;2023-02-27T13:05:32;100580.66;;;19.35;50.43
11523;BME280;40093;43.224;27.910;2023-02-27T13:08:27;100581.72;;;19.41;49.97
11523;BME280;40093;43.224;27.910;2023-02-27T13:10:58;100600.13;;;19.38;50.27
11523;BME280;40093;43.224;27.910;2023-02-27T13:13:33;100589.47;;;19.33;50.42
11523;BME280;40093;43.224;27.910;2023-02-27T13:16:04;100599.72;;;19.56;49.75
11523;BME280;40093;43.224;27.910;2023-02-27T13:18:39;100597.94;;;19.46;49.98